createdAt,value
2018-05-29T00:01:43.748Z,100280.66
2018-05-29T00:04:12.155Z,100282.10
2018-05-29T00:06:40.546Z,100276.62
2018-05-29T00:09:08.990Z,100277.47
2018-05-29T00:11:37.329Z,100275.95
2018-05-29T00:14:05.702Z,100276.22
2018-05-29T00:16:34.030Z,100277.13
2018-05-29T00:19:02.359Z,100272.95
2018-05-29T00:21:30.701Z,100272.61
2018-05-29T00:23:59.037Z,100273.45
2018-05-29T00:26:27.386Z,100271.75
2018-05-29T00:28:55.733Z,100269.92
2018-05-29T00:31:24.161Z,100270.11
2018-05-29T00:33:52.489Z,100259.46
2018-05-29T00:36:20.828Z,100258.55
2018-05-29T00:38:49.180Z,100257.57
2018-05-29T00:41:17.506Z,100251.57
2018-05-29T00:43:45.911Z,100244.88
2018-05-29T00:46:14.231Z,100243.11
2018-05-29T00:48:42.589Z,100239.55
2018-05-29T00:51:10.908Z,100243.06
2018-05-29T00:53:39.283Z,100242.49
2018-05-29T00:56:07.687Z,100242.33
2018-05-29T00:58:36.057Z,100230.13
2018-05-29T01:01:04.464Z,100237.11
2018-05-29T01:03:32.792Z,100234.05
2018-05-29T01:06:01.129Z,100234.63
2018-05-29T01:08:29.552Z,100235.75
2018-05-29T01:10:57.910Z,100233.20
2018-05-29T01:13:26.245Z,100227.91
2018-05-29T01:15:54.581Z,100234.95
2018-05-29T01:18:22.998Z,100240.95
2018-05-29T01:20:51.395Z,100245.60
2018-05-29T01:23:19.732Z,100238.69
2018-05-29T01:25:48.066Z,100240.66
2018-05-29T01:28:16.463Z,100235.16
2018-05-29T01:33:19.513Z,100231.02
2018-05-29T01:35:47.889Z,100236.17
2018-05-29T01:38:16.293Z,100237.39
2018-05-29T01:40:44.659Z,100235.11
2018-05-29T01:43:12.969Z,100233.00
2018-05-29T01:45:41.311Z,100230.94
2018-05-29T01:48:09.647Z,100230.19
2018-05-29T01:50:37.997Z,100224.10
2018-05-29T01:53:06.415Z,100222.89
2018-05-29T01:55:34.823Z,100223.85
2018-05-29T01:58:03.135Z,100221.78
2018-05-29T02:00:31.518Z,100224.17
2018-05-29T02:02:59.861Z,100218.20
2018-05-29T02:05:28.177Z,100219.34
2018-05-29T02:07:56.522Z,100214.41
2018-05-29T02:10:24.854Z,100213.05
2018-05-29T02:12:53.185Z,100206.50
2018-05-29T02:15:21.529Z,100199.82
2018-05-29T02:17:49.867Z,100201.25
2018-05-29T02:20:18.209Z,100197.50
2018-05-29T02:22:46.622Z,100198.92
2018-05-29T02:25:14.941Z,100197.31
2018-05-29T02:27:43.327Z,100193.48
2018-05-29T02:30:11.658Z,100187.38
2018-05-29T02:32:39.972Z,100183.20
2018-05-29T02:35:08.362Z,100180.77
2018-05-29T02:37:36.787Z,100182.20
2018-05-29T02:40:05.140Z,100174.66
2018-05-29T02:42:33.531Z,100170.91
2018-05-29T02:45:01.842Z,100171.76
2018-05-29T02:47:30.244Z,100172.11
2018-05-29T02:49:58.626Z,100175.53
2018-05-29T02:52:26.951Z,100172.09
2018-05-29T02:54:55.298Z,100175.31
2018-05-29T02:57:24.228Z,100175.09
2018-05-29T02:59:52.611Z,100174.26
2018-05-29T03:02:20.980Z,100171.08
2018-05-29T03:04:49.388Z,100170.84
2018-05-29T03:07:17.710Z,100175.98
2018-05-29T03:09:46.021Z,100179.28
2018-05-29T03:12:14.360Z,100177.64
2018-05-29T03:14:42.690Z,100177.28
2018-05-29T03:17:11.052Z,100179.69
2018-05-29T03:19:39.427Z,100176.21
2018-05-29T03:22:07.760Z,100177.83
2018-05-29T03:24:36.095Z,100177.33
2018-05-29T03:27:04.432Z,100179.17
2018-05-29T03:29:32.761Z,100185.45
2018-05-29T03:32:01.077Z,100181.91
2018-05-29T03:34:29.515Z,100184.41
2018-05-29T03:36:57.950Z,100182.91
2018-05-29T03:39:26.389Z,100179.34
2018-05-29T03:41:54.743Z,100176.16
2018-05-29T03:44:23.174Z,100170.96
2018-05-29T03:46:51.511Z,100173.81
2018-05-29T03:49:19.828Z,100177.03
2018-05-29T03:51:48.250Z,100180.78
2018-05-29T03:54:16.624Z,100179.25
2018-05-29T03:56:45.025Z,100173.30
2018-05-29T03:59:13.364Z,100180.80
2018-05-29T04:01:42.790Z,100179.42
2018-05-29T04:04:11.133Z,100178.34
2018-05-29T04:06:39.475Z,100177.19
2018-05-29T04:09:07.801Z,100177.47
2018-05-29T04:11:36.244Z,100173.39
2018-05-29T04:14:04.598Z,100173.57
2018-05-29T04:16:32.937Z,100168.86
2018-05-29T04:19:01.288Z,100175.66
2018-05-29T04:21:29.657Z,100174.12
2018-05-29T04:23:58.107Z,100172.89
2018-05-29T04:26:26.418Z,100172.77
2018-05-29T04:28:54.845Z,100172.42
2018-05-29T04:31:23.167Z,100173.50
2018-05-29T04:33:51.484Z,100176.16
2018-05-29T04:36:19.948Z,100174.62
2018-05-29T04:38:48.302Z,100166.49
2018-05-29T04:41:16.635Z,100169.34
2018-05-29T04:43:44.954Z,100163.41
2018-05-29T04:46:13.282Z,100168.30
2018-05-29T04:48:41.673Z,100163.52
2018-05-29T04:51:10.782Z,100164.84
2018-05-29T04:53:39.184Z,100170.33
2018-05-29T04:56:07.524Z,100168.22
2018-05-29T04:58:35.857Z,100170.32
2018-05-29T05:01:04.179Z,100171.23
2018-05-29T05:03:32.513Z,100165.32
2018-05-29T05:06:00.828Z,100172.40
2018-05-29T05:08:29.253Z,100167.13
2018-05-29T05:10:57.579Z,100169.97
2018-05-29T05:13:26.538Z,100167.77
2018-05-29T05:15:54.865Z,100158.86
2018-05-29T05:18:23.201Z,100159.27
2018-05-29T05:20:51.532Z,100162.37
2018-05-29T05:23:19.834Z,100163.80
2018-05-29T05:25:48.801Z,100164.66
2018-05-29T05:28:17.120Z,100161.95
2018-05-29T05:30:45.461Z,100164.55
2018-05-29T05:33:13.781Z,100157.84
2018-05-29T05:35:42.111Z,100158.55
2018-05-29T05:38:10.433Z,100159.97
2018-05-29T05:40:39.194Z,100158.66
2018-05-29T05:43:07.498Z,100157.41
2018-05-29T05:45:35.833Z,100154.95
2018-05-29T05:48:04.179Z,100155.45
2018-05-29T05:50:32.510Z,100157.61
2018-05-29T05:53:00.887Z,100151.48
2018-05-29T05:55:29.222Z,100148.80
2018-05-29T05:57:57.634Z,100142.30
2018-05-29T06:00:25.978Z,100146.39
2018-05-29T06:02:54.380Z,100141.95
2018-05-29T06:05:22.769Z,100139.42
2018-05-29T06:07:51.107Z,100137.25
2018-05-29T06:10:19.437Z,100129.30
2018-05-29T06:12:47.751Z,100132.57
2018-05-29T06:15:22.284Z,100131.81
2018-05-29T06:17:50.627Z,100127.58
2018-05-29T06:20:18.954Z,100125.22
2018-05-29T06:22:47.287Z,100123.34
2018-05-29T06:25:15.615Z,100114.32
2018-05-29T06:27:44.047Z,100110.27
2018-05-29T06:30:12.435Z,100116.48
2018-05-29T06:32:40.828Z,100118.92
2018-05-29T06:35:09.227Z,100115.97
2018-05-29T06:37:37.891Z,100114.73
2018-05-29T06:40:06.206Z,100106.70
2018-05-29T06:42:34.534Z,100107.18
2018-05-29T06:45:03.232Z,100106.00
2018-05-29T06:47:31.480Z,100106.06
2018-05-29T06:49:59.870Z,100102.81
2018-05-29T06:52:28.269Z,100109.58
2018-05-29T06:54:56.603Z,100107.87
2018-05-29T06:57:25.120Z,100106.97
2018-05-29T06:59:53.442Z,100103.56
2018-05-29T07:02:21.759Z,100107.45
2018-05-29T07:04:50.135Z,100106.72
2018-05-29T07:07:18.448Z,100104.27
2018-05-29T07:09:46.818Z,100097.29
2018-05-29T07:12:15.125Z,100100.00
2018-05-29T07:14:43.493Z,100090.52
2018-05-29T07:17:11.821Z,100090.27
2018-05-29T07:19:40.168Z,100089.00
2018-05-29T07:22:08.483Z,100095.52
2018-05-29T07:24:36.845Z,100092.81
2018-05-29T07:27:05.267Z,100082.62
2018-05-29T07:29:33.642Z,100095.23
2018-05-29T07:32:01.950Z,100084.03
2018-05-29T07:34:30.489Z,100089.00
2018-05-29T07:36:58.793Z,100090.34
2018-05-29T07:39:27.236Z,100083.24
2018-05-29T07:41:56.620Z,100073.43
2018-05-29T07:44:24.942Z,100076.09
2018-05-29T07:46:53.316Z,100075.88
2018-05-29T07:49:21.706Z,100079.91
2018-05-29T07:51:50.022Z,100074.22
2018-05-29T07:54:18.390Z,100074.87
2018-05-29T07:56:46.718Z,100075.27
2018-05-29T07:59:15.034Z,100070.92
2018-05-29T08:01:43.365Z,100058.16
2018-05-29T08:04:11.674Z,100055.23
2018-05-29T08:06:40.088Z,100057.87
2018-05-29T08:09:08.402Z,100059.23
2018-05-29T08:11:36.753Z,100047.55
2018-05-29T08:14:05.095Z,100055.11
2018-05-29T08:16:33.409Z,100065.30
2018-05-29T08:19:01.731Z,100064.37
2018-05-29T08:21:30.103Z,100048.36
2018-05-29T08:23:58.435Z,100051.65
2018-05-29T08:26:26.768Z,100042.72
2018-05-29T08:28:55.140Z,100053.41
2018-05-29T08:31:23.562Z,100049.38
2018-05-29T08:33:51.950Z,100039.67
2018-05-29T08:36:20.281Z,100052.41
2018-05-29T08:38:48.642Z,100049.85
2018-05-29T08:41:16.959Z,100035.55
2018-05-29T08:43:45.301Z,100047.50
2018-05-29T08:46:13.767Z,100044.21
2018-05-29T08:48:42.150Z,100041.47
2018-05-29T08:51:10.452Z,100040.41
2018-05-29T08:53:38.805Z,100036.15
2018-05-29T08:56:07.197Z,100042.80
2018-05-29T08:58:35.531Z,100028.14
2018-05-29T09:01:03.893Z,100043.02
2018-05-29T09:03:32.234Z,100031.56
2018-05-29T09:06:00.564Z,100037.11
2018-05-29T09:08:28.912Z,100019.00
2018-05-29T09:10:57.347Z,100008.11
2018-05-29T09:13:25.718Z,100006.37
2018-05-29T09:15:54.068Z,100010.53
2018-05-29T09:18:22.524Z,100014.34
2018-05-29T09:20:50.925Z,100009.79
2018-05-29T09:23:19.303Z,100013.87
2018-05-29T09:25:47.699Z,100013.09
2018-05-29T09:28:16.088Z,100006.09
2018-05-29T09:30:44.490Z,100031.80
2018-05-29T09:33:13.115Z,100013.81
2018-05-29T09:35:41.463Z,100014.73
2018-05-29T09:38:09.785Z,99996.41
2018-05-29T09:40:38.144Z,99999.60
2018-05-29T09:43:06.861Z,100006.39
2018-05-29T09:45:35.162Z,99999.71
2018-05-29T09:48:03.478Z,99986.52
2018-05-29T09:50:31.812Z,99993.87
2018-05-29T09:53:00.147Z,100003.58
2018-05-29T09:55:28.601Z,99993.05
2018-05-29T09:57:56.915Z,99990.10
2018-05-29T10:00:31.028Z,99986.64
2018-05-29T10:02:59.448Z,99994.39
2018-05-29T10:05:27.804Z,99983.48
2018-05-29T10:07:56.146Z,99980.27
2018-05-29T10:10:24.446Z,99990.72
2018-05-29T10:12:55.207Z,99974.91
2018-05-29T10:15:24.565Z,99969.89
2018-05-29T10:17:52.900Z,99967.95
2018-05-29T10:20:21.258Z,99959.25
2018-05-29T10:22:49.555Z,99957.13
2018-05-29T10:25:17.858Z,99963.61
2018-05-29T10:27:46.223Z,99964.63
2018-05-29T10:30:14.627Z,99968.91
2018-05-29T10:32:42.963Z,99959.24
2018-05-29T10:35:11.263Z,99948.16
2018-05-29T10:37:39.681Z,99952.07
2018-05-29T10:40:07.981Z,99965.98
2018-05-29T10:42:36.299Z,99947.64
2018-05-29T10:45:04.625Z,99944.58
2018-05-29T10:47:33.046Z,99939.63
2018-05-29T10:50:01.344Z,99938.09
2018-05-29T10:52:29.675Z,99948.22
2018-05-29T10:54:58.032Z,99936.73
2018-05-29T10:57:26.360Z,99936.04
2018-05-29T10:59:54.703Z,99931.70
2018-05-29T11:02:23.056Z,99928.94
2018-05-29T11:04:51.411Z,99936.72
2018-05-29T11:07:19.731Z,99932.31
2018-05-29T11:09:48.169Z,99927.64
2018-05-29T11:12:16.557Z,99935.23
2018-05-29T11:14:44.967Z,99922.23
2018-05-29T11:17:13.440Z,99920.95
2018-05-29T11:19:41.857Z,99918.83
2018-05-29T11:22:10.246Z,99914.83
2018-05-29T11:24:38.615Z,99918.11
2018-05-29T11:27:06.928Z,99920.41
2018-05-29T11:29:35.258Z,99909.88
2018-05-29T11:32:03.620Z,99901.84
2018-05-29T11:34:32.004Z,99895.98
2018-05-29T11:37:00.331Z,99890.93
2018-05-29T11:39:28.630Z,99898.45
2018-05-29T11:41:56.940Z,99887.63
2018-05-29T11:44:25.263Z,99877.94
2018-05-29T11:46:53.589Z,99887.19
2018-05-29T11:49:21.915Z,99889.13
2018-05-29T11:51:50.223Z,99879.63
2018-05-29T11:54:18.545Z,99890.61
2018-05-29T11:56:46.873Z,99881.42
2018-05-29T11:59:15.208Z,99887.21
2018-05-29T12:01:43.682Z,99874.91
2018-05-29T12:04:11.970Z,99872.04
2018-05-29T12:06:40.516Z,99864.02
2018-05-29T12:09:08.875Z,99867.58
2018-05-29T12:11:37.288Z,99863.72
2018-05-29T12:14:05.620Z,99865.39
2018-05-29T12:16:33.939Z,99852.67
2018-05-29T12:19:02.340Z,99886.89
2018-05-29T12:21:30.655Z,99865.08
2018-05-29T12:23:58.973Z,99861.55
2018-05-29T12:26:27.279Z,99858.38
2018-05-29T12:28:55.580Z,99859.64
2018-05-29T12:31:23.911Z,99855.59
2018-05-29T12:33:52.228Z,99857.06
2018-05-29T12:36:20.535Z,99856.45
2018-05-29T12:38:48.859Z,99843.09
2018-05-29T12:41:17.217Z,99858.27
2018-05-29T12:43:45.562Z,99836.98
2018-05-29T12:46:14.020Z,99837.48
2018-05-29T12:48:42.335Z,99849.13
2018-05-29T12:51:10.688Z,99843.88
2018-05-29T12:53:39.127Z,99827.67
2018-05-29T12:56:07.514Z,99829.60
2018-05-29T12:58:35.906Z,99830.08
2018-05-29T13:01:04.230Z,99830.45
2018-05-29T13:03:32.535Z,99823.49
2018-05-29T13:06:00.852Z,99820.77
2018-05-29T13:08:29.197Z,99831.00
2018-05-29T13:10:57.511Z,99812.63
2018-05-29T13:13:25.853Z,99808.39
2018-05-29T13:15:54.238Z,99801.63
2018-05-29T13:18:22.556Z,99810.58
2018-05-29T13:20:50.918Z,99813.79
2018-05-29T13:23:19.312Z,99805.72
2018-05-29T13:25:47.631Z,99814.19
2018-05-29T13:28:15.961Z,99804.43
2018-05-29T13:30:44.403Z,99798.22
2018-05-29T13:33:12.780Z,99800.40
2018-05-29T13:35:41.106Z,99799.92
2018-05-29T13:38:09.428Z,99794.77
2018-05-29T13:40:37.898Z,99802.23
2018-05-29T13:43:06.211Z,99793.76
2018-05-29T13:45:34.690Z,99791.09
2018-05-29T13:48:02.995Z,99784.25
2018-05-29T13:50:31.311Z,99795.09
2018-05-29T13:52:59.720Z,99789.55
2018-05-29T13:55:28.109Z,99784.36
2018-05-29T13:57:56.510Z,99773.95
2018-05-29T14:00:24.815Z,99772.91
2018-05-29T14:02:53.144Z,99774.39
2018-05-29T14:05:21.461Z,99766.88
2018-05-29T14:07:50.331Z,99761.00
2018-05-29T14:10:18.645Z,99762.17
2018-05-29T14:12:46.960Z,99764.58
2018-05-29T14:15:15.280Z,99773.16
2018-05-29T14:17:43.599Z,99761.01
2018-05-29T14:20:11.939Z,99754.07
2018-05-29T14:22:40.258Z,99746.64
2018-05-29T14:25:08.567Z,99738.02
2018-05-29T14:27:36.883Z,99738.86
2018-05-29T14:30:05.231Z,99739.24
2018-05-29T14:32:33.597Z,99732.33
2018-05-29T14:35:01.965Z,99749.42
2018-05-29T14:37:30.361Z,99748.94
2018-05-29T14:39:58.717Z,99752.17
2018-05-29T14:42:27.059Z,99745.60
2018-05-29T14:44:55.362Z,99752.39
2018-05-29T14:47:24.617Z,99741.91
2018-05-29T14:49:52.972Z,99738.39
2018-05-29T14:52:21.376Z,99733.60
2018-05-29T14:54:49.744Z,99739.23
2018-05-29T14:57:18.078Z,99735.00
2018-05-29T14:59:46.425Z,99732.23
2018-05-29T15:02:14.735Z,99725.98
2018-05-29T15:04:43.088Z,99715.20
2018-05-29T15:07:11.398Z,99723.41
2018-05-29T15:09:39.769Z,99725.10
2018-05-29T15:12:08.081Z,99718.53
2018-05-29T15:14:36.475Z,99724.11
2018-05-29T15:17:04.791Z,99723.12
2018-05-29T15:19:33.109Z,99713.19
2018-05-29T15:22:01.416Z,99703.61
2018-05-29T15:24:29.742Z,99706.70
2018-05-29T15:26:58.141Z,99691.66
2018-05-29T15:29:26.465Z,99692.48
2018-05-29T15:31:54.912Z,99687.99
2018-05-29T15:34:23.304Z,99685.92
2018-05-29T15:36:51.652Z,99684.73
2018-05-29T15:39:19.971Z,99687.95
2018-05-29T15:41:48.291Z,99681.37
2018-05-29T15:44:21.921Z,99682.52
2018-05-29T15:46:50.220Z,99678.12
2018-05-29T15:49:18.529Z,99670.84
2018-05-29T15:51:46.859Z,99680.72
2018-05-29T15:54:15.188Z,99682.55
2018-05-29T15:56:43.512Z,99678.22
2018-05-29T15:59:11.941Z,99675.94
2018-05-29T16:01:40.283Z,99676.62
2018-05-29T16:04:08.588Z,99673.13
2018-05-29T16:06:36.935Z,99675.20
2018-05-29T16:09:06.207Z,99673.64
2018-05-29T16:11:34.528Z,99678.98
2018-05-29T16:14:02.889Z,99670.44
2018-05-29T16:16:31.380Z,99670.90
2018-05-29T16:18:59.700Z,99670.77
2018-05-29T16:21:28.072Z,99671.39
2018-05-29T16:23:56.477Z,99667.83
2018-05-29T16:26:24.827Z,99666.98
2018-05-29T16:28:53.138Z,99666.44
2018-05-29T16:31:21.509Z,99665.52
2018-05-29T16:33:49.818Z,99666.06
2018-05-29T16:36:18.243Z,99664.33
2018-05-29T16:38:46.608Z,99662.23
2018-05-29T16:41:15.020Z,99663.45
2018-05-29T16:43:43.374Z,99665.70
2018-05-29T16:46:11.681Z,99662.78
2018-05-29T16:48:40.107Z,99665.76
2018-05-29T16:51:08.437Z,99668.32
2018-05-29T16:53:36.753Z,99666.77
2018-05-29T16:56:05.103Z,99667.98
2018-05-29T16:58:33.486Z,99672.05
2018-05-29T17:01:01.824Z,99682.97
2018-05-29T17:03:30.167Z,99675.59
2018-05-29T17:05:58.491Z,99683.70
2018-05-29T17:08:26.841Z,99681.56
2018-05-29T17:10:55.224Z,99683.92
2018-05-29T17:13:23.527Z,99685.23
2018-05-29T17:15:51.921Z,99690.02
2018-05-29T17:18:20.260Z,99686.69
2018-05-29T17:20:48.626Z,99691.27
2018-05-29T17:23:16.934Z,99692.98
2018-05-29T17:25:45.288Z,99694.20
2018-05-29T17:28:13.656Z,99699.48
2018-05-29T17:30:41.981Z,99686.58
2018-05-29T17:33:10.302Z,99678.99
2018-05-29T17:35:38.668Z,99694.13
2018-05-29T17:38:07.017Z,99697.48
2018-05-29T17:40:35.362Z,99703.25
2018-05-29T17:43:03.690Z,99710.59
2018-05-29T17:45:32.016Z,99706.45
2018-05-29T17:48:00.352Z,99707.29
2018-05-29T17:50:28.665Z,99706.59
2018-05-29T17:52:57.014Z,99705.39
2018-05-29T17:55:25.321Z,99718.30
2018-05-29T17:57:53.672Z,99707.22
2018-05-29T18:00:21.972Z,99705.84
2018-05-29T18:02:50.311Z,99703.84
2018-05-29T18:05:18.632Z,99708.95
2018-05-29T18:07:47.081Z,99700.87
2018-05-29T18:10:15.422Z,99702.30
2018-05-29T18:12:43.743Z,99703.30
2018-05-29T18:15:12.236Z,99701.36
2018-05-29T18:17:40.627Z,99696.91
2018-05-29T18:20:08.996Z,99697.13
2018-05-29T18:22:37.365Z,99696.86
2018-05-29T18:25:05.678Z,99698.66
2018-05-29T18:27:34.090Z,99701.05
2018-05-29T18:30:02.446Z,99706.83
2018-05-29T18:32:30.804Z,99703.34
2018-05-29T18:34:59.181Z,99702.58
2018-05-29T18:37:27.513Z,99713.43
2018-05-29T18:39:56.136Z,99710.86
2018-05-29T18:42:24.568Z,99714.42
2018-05-29T18:44:52.922Z,99716.23
2018-05-29T18:47:21.248Z,99725.08
2018-05-29T18:49:49.596Z,99724.91
2018-05-29T18:52:17.907Z,99724.52
2018-05-29T18:54:46.235Z,99730.83
2018-05-29T18:57:14.551Z,99732.63
2018-05-29T18:59:42.883Z,99743.25
2018-05-29T19:02:11.252Z,99748.56
2018-05-29T19:04:39.641Z,99756.64
2018-05-29T19:07:07.948Z,99756.44
2018-05-29T19:09:36.285Z,99754.70
2018-05-29T19:12:04.685Z,99754.91
2018-05-29T19:14:33.003Z,99752.36
2018-05-29T19:17:01.353Z,99750.23
2018-05-29T19:19:29.661Z,99758.27
2018-05-29T19:21:57.987Z,99762.20
2018-05-29T19:24:26.314Z,99765.74
2018-05-29T19:26:54.654Z,99761.45
2018-05-29T19:29:23.009Z,99770.90
2018-05-29T19:31:52.231Z,99771.50
2018-05-29T19:34:20.695Z,99778.37
2018-05-29T19:36:49.024Z,99782.48
2018-05-29T19:39:17.341Z,99788.58
2018-05-29T19:41:45.737Z,99789.53
2018-05-29T19:44:14.060Z,99788.76
2018-05-29T19:46:42.396Z,99790.52
2018-05-29T19:49:10.694Z,99795.24
2018-05-29T19:51:39.010Z,99801.70
2018-05-29T19:54:07.353Z,99799.14
2018-05-29T19:56:35.660Z,99803.25
2018-05-29T19:59:03.980Z,99796.38
2018-05-29T20:01:32.323Z,99799.34
2018-05-29T20:04:00.624Z,99803.08
2018-05-29T20:06:28.964Z,99801.09
2018-05-29T20:08:57.287Z,99806.61
2018-05-29T20:11:25.660Z,99815.25
2018-05-29T20:13:53.981Z,99817.80
2018-05-29T20:16:22.328Z,99825.83
2018-05-29T20:18:50.666Z,99823.87
2018-05-29T20:21:19.090Z,99821.72
2018-05-29T20:23:47.486Z,99824.25
2018-05-29T20:26:15.809Z,99818.34
2018-05-29T20:28:44.241Z,99812.28
2018-05-29T20:31:12.809Z,99818.55
2018-05-29T20:33:41.119Z,99814.82
2018-05-29T20:36:09.424Z,99825.03
2018-05-29T20:38:37.750Z,99835.23
2018-05-29T20:41:06.134Z,99829.76
2018-05-29T20:43:34.522Z,99833.31
2018-05-29T20:46:02.882Z,99841.94
2018-05-29T20:48:31.238Z,99836.25
2018-05-29T20:50:59.559Z,99845.06
2018-05-29T20:53:27.899Z,99853.30
2018-05-29T20:55:56.211Z,99859.97
2018-05-29T20:58:24.532Z,99867.02
2018-05-29T21:00:52.976Z,99873.84
2018-05-29T21:03:21.321Z,99863.79
2018-05-29T21:05:49.637Z,99870.98
2018-05-29T21:08:18.039Z,99859.80
2018-05-29T21:10:46.430Z,99848.02
2018-05-29T21:13:14.924Z,99840.54
2018-05-29T21:15:43.314Z,99848.88
2018-05-29T21:18:11.727Z,99855.13
2018-05-29T21:20:40.099Z,99843.16
2018-05-29T21:23:08.528Z,99840.37
2018-05-29T21:25:36.861Z,99841.30
2018-05-29T21:28:06.008Z,99842.63
2018-05-29T21:30:34.389Z,99850.39
2018-05-29T21:33:02.785Z,99847.47
2018-05-29T21:35:31.108Z,99849.16
2018-05-29T21:37:59.454Z,99854.02
2018-05-29T21:40:27.772Z,99841.45
2018-05-29T21:42:56.096Z,99830.03
2018-05-29T21:45:24.730Z,99829.04
2018-05-29T21:47:53.058Z,99846.62
2018-05-29T21:50:21.594Z,99821.73
2018-05-29T21:52:50.040Z,99821.27
2018-05-29T21:55:18.425Z,99819.09
2018-05-29T21:57:47.738Z,99811.17
2018-05-29T22:00:16.058Z,99808.95
2018-05-29T22:02:44.394Z,99811.80
2018-05-29T22:05:12.706Z,99816.48
2018-05-29T22:07:41.101Z,99811.16
2018-05-29T22:10:09.412Z,99807.64
2018-05-29T22:12:37.787Z,99802.13
2018-05-29T22:15:06.253Z,99789.00
2018-05-29T22:17:34.769Z,99797.87
2018-05-29T22:20:03.119Z,99798.75
2018-05-29T22:22:31.640Z,99804.73
2018-05-29T22:25:00.048Z,99807.40
2018-05-29T22:27:28.654Z,99810.84
2018-05-29T22:29:56.966Z,99810.75
2018-05-29T22:32:25.382Z,99816.76
2018-05-29T22:34:53.733Z,99812.91
2018-05-29T22:37:22.143Z,99821.24
2018-05-29T22:39:51.406Z,99817.64
2018-05-29T22:42:19.706Z,99823.66
2018-05-29T22:44:48.092Z,99832.39
2018-05-29T22:47:16.459Z,99834.22
2018-05-29T22:49:44.826Z,99829.47
2018-05-29T22:52:13.161Z,99829.23
2018-05-29T22:54:41.585Z,99836.06
2018-05-29T22:57:09.890Z,99834.83
2018-05-29T22:59:38.262Z,99839.64
2018-05-29T23:02:06.680Z,99851.48
2018-05-29T23:04:35.045Z,99854.02
2018-05-29T23:07:03.354Z,99855.86
2018-05-29T23:09:31.678Z,99856.61
2018-05-29T23:12:00.006Z,99857.94
2018-05-29T23:14:28.315Z,99861.92
2018-05-29T23:16:56.714Z,99859.70
2018-05-29T23:19:25.064Z,99865.55
2018-05-29T23:21:53.977Z,99859.28
2018-05-29T23:24:22.292Z,99859.05
2018-05-29T23:26:50.708Z,99858.65
2018-05-29T23:29:19.016Z,99859.16
2018-05-29T23:31:47.344Z,99864.39
2018-05-29T23:34:15.731Z,99866.22
2018-05-29T23:36:44.091Z,99868.25
2018-05-29T23:39:12.429Z,99865.80
2018-05-29T23:41:40.752Z,99860.45
2018-05-29T23:44:09.188Z,99856.11
2018-05-29T23:46:37.518Z,99852.17
2018-05-29T23:49:05.855Z,99853.34
2018-05-29T23:51:34.161Z,99851.21
2018-05-29T23:59:46.070Z,99850.88
